sensor_id;sensor_type;location;lat;lon;timestamp;P1;durP1;ratioP1;P2;durP2;ratioP2
51451;SDS011;37521;52.020;-1.740;2023-12-29T00:02:06;2.45;;;1.58;;
51451;SDS011;37521;52.020;-1.740;2023-12-29T00:04:38;3.53;;;0.50;;
51451;SDS011;37521;52.020;-1.740;2023-12-29T00:07:11;3.35;;;0.70;;
51451;SDS011;37521;52.020;-1.740;2023-12-29T00:09:48;3.50;;;0.95;;
51451;SDS011;37521;52.020;-1.740;2023-12-29T00:12:18;4.35;;;0.82;;
51451;SDS011;37521;52.020;-1.740;2023-12-29T00:14:47;1.65;;;1.00;;
51451;SDS011;37521;52.020;-1.740;2023-12-29T00:17:16;5.90;;;1.05;;
51451;SDS011;37521;52.020;-1.740;2023-12-29T00:19:45;5.80;;;1.15;;
51451;SDS011;37521;52.020;-1.740;2023-12-29T00:22:13;7.65;;;1.63;;
51451;SDS011;37521;52.020;-1.740;2023-12-29T00:24:42;2.10;;;0.80;;
51451;SDS011;37521;52.020;-1.740;2023-12-29T00:27:11;8.27;;;1.30;;
51451;SDS011;37521;52.020;-1.740;2023-12-29T00:29:41;9.95;;;1.38;;
51451;SDS011;37521;52.020;-1.740;2023-12-29T00:32:10;4.40;;;0.85;;
51451;SDS011;37521;52.020;-1.740;2023-12-29T00:34:39;3.40;;;0.77;;
51451;SDS011;37521;52.020;-1.740;2023-12-29T00:37:07;4.20;;;0.93;;
51451;SDS011;37521;52.020;-1.740;2023-12-29T00:39:36;3.97;;;1.10;;
51451;SDS011;37521;52.020;-1.740;2023-12-29T00:42:07;4.63;;;1.25;;
51451;SDS011;37521;52.020;-1.740;2023-12-29T00:44:36;4.53;;;1.02;;
51451;SDS011;37521;52.020;-1.740;2023-12-29T00:47:06;2.00;;;0.90;;
51451;SDS011;37521;52.020;-1.740;2023-12-29T00:49:38;1.30;;;0.75;;
51451;SDS011;37521;52.020;-1.740;2023-12-29T00:52:09;2.22;;;0.77;;
51451;SDS011;37521;52.020;-1.740;2023-12-29T00:54:38;5.10;;;1.15;;
51451;SDS011;37521;52.020;-1.740;2023-12-29T00:57:09;4.18;;;1.55;;
51451;SDS011;37521;52.020;-1.740;2023-12-29T00:59:38;1.25;;;0.68;;
51451;SDS011;37521;52.020;-1.740;2023-12-29T01:02:08;6.35;;;1.02;;
51451;SDS011;37521;52.020;-1.740;2023-12-29T01:04:37;4.47;;;1.30;;
51451;SDS011;37521;52.020;-1.740;2023-12-29T01:07:07;7.70;;;0.90;;
51451;SDS011;37521;52.020;-1.740;2023-12-29T01:09:37;6.35;;;0.85;;
51451;SDS011;37521;52.020;-1.740;2023-12-29T01:12:08;3.75;;;0.68;;
51451;SDS011;37521;52.020;-1.740;2023-12-29T01:14:37;2.85;;;0.63;;
51451;SDS011;37521;52.020;-1.740;2023-12-29T01:17:05;4.50;;;1.33;;
51451;SDS011;37521;52.020;-1.740;2023-12-29T01:19:35;9.20;;;1.00;;
51451;SDS011;37521;52.020;-1.740;2023-12-29T01:22:04;5.80;;;0.80;;
51451;SDS011;37521;52.020;-1.740;2023-12-29T01:24:33;1.02;;;0.52;;
51451;SDS011;37521;52.020;-1.740;2023-12-29T01:27:11;0.73;;;0.38;;
51451;SDS011;37521;52.020;-1.740;2023-12-29T01:29:40;4.43;;;1.38;;
51451;SDS011;37521;52.020;-1.740;2023-12-29T01:32:09;2.58;;;1.08;;
51451;SDS011;37521;52.020;-1.740;2023-12-29T01:34:39;2.25;;;0.50;;
51451;SDS011;37521;52.020;-1.740;2023-12-29T01:37:08;4.55;;;1.02;;
51451;SDS011;37521;52.020;-1.740;2023-12-29T01:39:37;3.63;;;0.73;;
51451;SDS011;37521;52.020;-1.740;2023-12-29T01:42:07;1.13;;;0.80;;
51451;SDS011;37521;52.020;-1.740;2023-12-29T01:44:38;2.85;;;0.45;;
51451;SDS011;37521;52.020;-1.740;2023-12-29T01:47:10;1.25;;;0.40;;
51451;SDS011;37521;52.020;-1.740;2023-12-29T01:49:44;1.95;;;0.73;;
51451;SDS011;37521;52.020;-1.740;2023-12-29T01:52:14;2.63;;;0.40;;
51451;SDS011;37521;52.020;-1.740;2023-12-29T01:54:45;3.17;;;0.95;;
51451;SDS011;37521;52.020;-1.740;2023-12-29T01:57:15;0.60;;;0.60;;
51451;SDS011;37521;52.020;-1.740;2023-12-29T01:59:45;4.47;;;0.80;;
51451;SDS011;37521;52.020;-1.740;2023-12-29T02:02:15;3.80;;;0.50;;
51451;SDS011;37521;52.020;-1.740;2023-12-29T02:04:47;0.85;;;0.57;;
51451;SDS011;37521;52.020;-1.740;2023-12-29T02:07:16;0.70;;;0.15;;
51451;SDS011;37521;52.020;-1.740;2023-12-29T02:09:45;2.50;;;0.63;;
51451;SDS011;37521;52.020;-1.740;2023-12-29T02:12:15;1.00;;;0.32;;
51451;SDS011;37521;52.020;-1.740;2023-12-29T02:14:45;4.38;;;1.50;;
51451;SDS011;37521;52.020;-1.740;2023-12-29T02:17:15;0.80;;;0.22;;
51451;SDS011;37521;52.020;-1.740;2023-12-29T02:19:52;4.68;;;0.25;;
51451;SDS011;37521;52.020;-1.740;2023-12-29T02:22:21;1.15;;;0.40;;
51451;SDS011;37521;52.020;-1.740;2023-12-29T02:24:52;0.77;;;0.52;;
51451;SDS011;37521;52.020;-1.740;2023-12-29T02:27:23;1.90;;;0.10;;
51451;SDS011;37521;52.020;-1.740;2023-12-29T02:30:04;0.20;;;0.20;;
51451;SDS011;37521;52.020;-1.740;2023-12-29T02:32:38;0.03;;;0.03;;
51451;SDS011;37521;52.020;-1.740;2023-12-29T02:35:09;0.80;;;0.35;;
51451;SDS011;37521;52.020;-1.740;2023-12-29T02:37:40;0.28;;;0.10;;
51451;SDS011;37521;52.020;-1.740;2023-12-29T02:40:11;0.93;;;0.30;;
51451;SDS011;37521;52.020;-1.740;2023-12-29T02:42:44;1.33;;;0.47;;
51451;SDS011;37521;52.020;-1.740;2023-12-29T02:45:14;2.20;;;0.20;;
51451;SDS011;37521;52.020;-1.740;2023-12-29T02:47:43;1.13;;;0.10;;
51451;SDS011;37521;52.020;-1.740;2023-12-29T02:50:12;0.08;;;0.08;;
51451;SDS011;37521;52.020;-1.740;2023-12-29T02:52:41;0.00;;;0.00;;
51451;SDS011;37521;52.020;-1.740;2023-12-29T02:55:11;0.20;;;0.20;;
51451;SDS011;37521;52.020;-1.740;2023-12-29T02:57:40;0.15;;;0.03;;
51451;SDS011;37521;52.020;-1.740;2023-12-29T03:00:10;0.10;;;0.10;;
51451;SDS011;37521;52.020;-1.740;2023-12-29T03:02:39;1.02;;;0.30;;
51451;SDS011;37521;52.020;-1.740;2023-12-29T03:05:08;0.90;;;0.50;;
51451;SDS011;37521;52.020;-1.740;2023-12-29T03:07:37;2.50;;;0.17;;
51451;SDS011;37521;52.020;-1.740;2023-12-29T03:10:06;3.45;;;0.40;;
51451;SDS011;37521;52.020;-1.740;2023-12-29T03:12:37;2.33;;;0.43;;
51451;SDS011;37521;52.020;-1.740;2023-12-29T03:15:07;8.90;;;0.60;;
51451;SDS011;37521;52.020;-1.740;2023-12-29T03:17:36;1.13;;;0.25;;
51451;SDS011;37521;52.020;-1.740;2023-12-29T03:20:05;2.60;;;0.20;;
51451;SDS011;37521;52.020;-1.740;2023-12-29T03:22:35;4.57;;;0.45;;
51451;SDS011;37521;52.020;-1.740;2023-12-29T03:25:04;1.13;;;0.30;;
51451;SDS011;37521;52.020;-1.740;2023-12-29T03:27:33;0.30;;;0.30;;
51451;SDS011;37521;52.020;-1.740;2023-12-29T03:30:04;4.15;;;0.63;;
51451;SDS011;37521;52.020;-1.740;2023-12-29T03:32:34;1.02;;;0.30;;
51451;SDS011;37521;52.020;-1.740;2023-12-29T03:35:02;0.45;;;0.10;;
51451;SDS011;37521;52.020;-1.740;2023-12-29T03:37:33;4.32;;;0.35;;
51451;SDS011;37521;52.020;-1.740;2023-12-29T03:40:01;0.65;;;0.30;;
51451;SDS011;37521;52.020;-1.740;2023-12-29T03:42:30;0.20;;;0.13;;
51451;SDS011;37521;52.020;-1.740;2023-12-29T03:45:00;1.50;;;0.65;;
51451;SDS011;37521;52.020;-1.740;2023-12-29T03:47:30;3.17;;;0.60;;
51451;SDS011;37521;52.020;-1.740;2023-12-29T03:49:59;2.55;;;0.15;;
51451;SDS011;37521;52.020;-1.740;2023-12-29T03:52:28;3.83;;;0.60;;
51451;SDS011;37521;52.020;-1.740;2023-12-29T03:54:57;2.97;;;0.73;;
51451;SDS011;37521;52.020;-1.740;2023-12-29T03:57:26;0.75;;;0.28;;
51451;SDS011;37521;52.020;-1.740;2023-12-29T03:59:54;1.17;;;0.30;;
51451;SDS011;37521;52.020;-1.740;2023-12-29T04:02:23;2.30;;;0.90;;
51451;SDS011;37521;52.020;-1.740;2023-12-29T04:04:53;1.95;;;0.45;;
51451;SDS011;37521;52.020;-1.740;2023-12-29T04:07:22;7.00;;;0.75;;
51451;SDS011;37521;52.020;-1.740;2023-12-29T04:09:51;5.30;;;0.47;;
51451;SDS011;37521;52.020;-1.740;2023-12-29T04:12:19;1.73;;;0.50;;
51451;SDS011;37521;52.020;-1.740;2023-12-29T04:14:48;0.90;;;0.20;;
51451;SDS011;37521;52.020;-1.740;2023-12-29T04:17:17;1.52;;;0.30;;
51451;SDS011;37521;52.020;-1.740;2023-12-29T04:19:46;1.77;;;0.30;;
51451;SDS011;37521;52.020;-1.740;2023-12-29T04:22:16;1.70;;;0.57;;
51451;SDS011;37521;52.020;-1.740;2023-12-29T04:24:45;2.67;;;0.40;;
51451;SDS011;37521;52.020;-1.740;2023-12-29T04:27:14;1.30;;;0.25;;
51451;SDS011;37521;52.020;-1.740;2023-12-29T04:29:43;0.98;;;0.20;;
51451;SDS011;37521;52.020;-1.740;2023-12-29T04:32:12;2.75;;;0.50;;
51451;SDS011;37521;52.020;-1.740;2023-12-29T04:34:43;8.20;;;1.00;;
51451;SDS011;37521;52.020;-1.740;2023-12-29T04:37:11;0.00;;;0.00;;
51451;SDS011;37521;52.020;-1.740;2023-12-29T04:39:42;0.28;;;0.15;;
51451;SDS011;37521;52.020;-1.740;2023-12-29T04:42:11;0.15;;;0.15;;
51451;SDS011;37521;52.020;-1.740;2023-12-29T04:44:39;2.78;;;0.20;;
51451;SDS011;37521;52.020;-1.740;2023-12-29T04:47:09;3.30;;;0.20;;
51451;SDS011;37521;52.020;-1.740;2023-12-29T04:49:38;2.10;;;0.17;;
51451;SDS011;37521;52.020;-1.740;2023-12-29T04:52:06;0.20;;;0.20;;
51451;SDS011;37521;52.020;-1.740;2023-12-29T04:54:35;1.40;;;0.30;;
51451;SDS011;37521;52.020;-1.740;2023-12-29T04:57:05;0.85;;;0.40;;
51451;SDS011;37521;52.020;-1.740;2023-12-29T04:59:34;1.77;;;0.10;;
51451;SDS011;37521;52.020;-1.740;2023-12-29T05:02:03;0.82;;;0.17;;
51451;SDS011;37521;52.020;-1.740;2023-12-29T05:04:31;0.40;;;0.10;;
51451;SDS011;37521;52.020;-1.740;2023-12-29T05:07:00;2.72;;;0.40;;
51451;SDS011;37521;52.020;-1.740;2023-12-29T05:09:29;1.40;;;0.22;;
51451;SDS011;37521;52.020;-1.740;2023-12-29T05:11:58;0.30;;;0.17;;
51451;SDS011;37521;52.020;-1.740;2023-12-29T05:14:28;0.63;;;0.10;;
51451;SDS011;37521;52.020;-1.740;2023-12-29T05:16:57;0.55;;;0.20;;
51451;SDS011;37521;52.020;-1.740;2023-12-29T05:19:25;0.17;;;0.10;;
51451;SDS011;37521;52.020;-1.740;2023-12-29T05:21:54;1.92;;;0.17;;
51451;SDS011;37521;52.020;-1.740;2023-12-29T05:24:23;0.08;;;0.08;;
51451;SDS011;37521;52.020;-1.740;2023-12-29T05:26:51;1.90;;;0.60;;
51451;SDS011;37521;52.020;-1.740;2023-12-29T05:29:20;1.73;;;0.50;;
51451;SDS011;37521;52.020;-1.740;2023-12-29T05:31:50;4.82;;;0.40;;
51451;SDS011;37521;52.020;-1.740;2023-12-29T05:34:19;0.65;;;0.17;;
51451;SDS011;37521;52.020;-1.740;2023-12-29T05:36:48;3.40;;;0.38;;
51451;SDS011;37521;52.020;-1.740;2023-12-29T05:39:17;3.97;;;0.40;;
51451;SDS011;37521;52.020;-1.740;2023-12-29T05:41:46;2.83;;;0.43;;
51451;SDS011;37521;52.020;-1.740;2023-12-29T05:44:14;1.58;;;0.38;;
51451;SDS011;37521;52.020;-1.740;2023-12-29T05:46:45;1.55;;;0.52;;
51451;SDS011;37521;52.020;-1.740;2023-12-29T05:49:16;2.70;;;0.43;;
51451;SDS011;37521;52.020;-1.740;2023-12-29T05:51:45;2.05;;;0.28;;
51451;SDS011;37521;52.020;-1.740;2023-12-29T05:54:14;0.80;;;0.50;;
51451;SDS011;37521;52.020;-1.740;2023-12-29T05:56:42;2.63;;;0.35;;
51451;SDS011;37521;52.020;-1.740;2023-12-29T05:59:12;0.47;;;0.20;;
51451;SDS011;37521;52.020;-1.740;2023-12-29T06:01:40;1.23;;;0.22;;
51451;SDS011;37521;52.020;-1.740;2023-12-29T06:04:09;1.08;;;0.40;;
51451;SDS011;37521;52.020;-1.740;2023-12-29T06:06:40;0.55;;;0.30;;
51451;SDS011;37521;52.020;-1.740;2023-12-29T06:09:10;1.75;;;0.55;;
51451;SDS011;37521;52.020;-1.740;2023-12-29T06:11:39;2.72;;;0.30;;
51451;SDS011;37521;52.020;-1.740;2023-12-29T06:14:07;1.50;;;0.43;;
51451;SDS011;37521;52.020;-1.740;2023-12-29T06:16:37;2.30;;;0.65;;
51451;SDS011;37521;52.020;-1.740;2023-12-29T06:19:05;2.55;;;0.35;;
51451;SDS011;37521;52.020;-1.740;2023-12-29T06:21:35;0.25;;;0.13;;
51451;SDS011;37521;52.020;-1.740;2023-12-29T06:24:11;0.47;;;0.47;;
51451;SDS011;37521;52.020;-1.740;2023-12-29T06:26:39;3.63;;;0.32;;
51451;SDS011;37521;52.020;-1.740;2023-12-29T06:29:10;4.43;;;0.60;;
51451;SDS011;37521;52.020;-1.740;2023-12-29T06:31:39;0.30;;;0.22;;
51451;SDS011;37521;52.020;-1.740;2023-12-29T06:34:09;4.07;;;0.38;;
51451;SDS011;37521;52.020;-1.740;2023-12-29T06:36:38;0.28;;;0.13;;
51451;SDS011;37521;52.020;-1.740;2023-12-29T06:39:09;3.53;;;0.30;;
51451;SDS011;37521;52.020;-1.740;2023-12-29T06:41:37;1.58;;;0.55;;
51451;SDS011;37521;52.020;-1.740;2023-12-29T06:44:06;1.77;;;0.77;;
51451;SDS011;37521;52.020;-1.740;2023-12-29T06:46:36;1.08;;;0.22;;
51451;SDS011;37521;52.020;-1.740;2023-12-29T06:49:06;0.75;;;0.28;;
51451;SDS011;37521;52.020;-1.740;2023-12-29T06:51:36;0.65;;;0.30;;
51451;SDS011;37521;52.020;-1.740;2023-12-29T06:54:06;5.10;;;0.68;;
51451;SDS011;37521;52.020;-1.740;2023-12-29T06:56:36;1.42;;;0.43;;
51451;SDS011;37521;52.020;-1.740;2023-12-29T06:59:04;0.80;;;0.22;;
51451;SDS011;37521;52.020;-1.740;2023-12-29T07:01:38;2.38;;;0.73;;
51451;SDS011;37521;52.020;-1.740;2023-12-29T07:04:08;2.03;;;0.63;;
51451;SDS011;37521;52.020;-1.740;2023-12-29T07:06:38;0.13;;;0.13;;
51451;SDS011;37521;52.020;-1.740;2023-12-29T07:09:07;2.17;;;1.15;;
51451;SDS011;37521;52.020;-1.740;2023-12-29T07:11:37;3.35;;;0.65;;
51451;SDS011;37521;52.020;-1.740;2023-12-29T07:14:06;7.88;;;0.60;;
51451;SDS011;37521;52.020;-1.740;2023-12-29T07:16:35;4.68;;;0.68;;
51451;SDS011;37521;52.020;-1.740;2023-12-29T07:19:04;1.05;;;0.40;;
51451;SDS011;37521;52.020;-1.740;2023-12-29T07:21:33;6.10;;;0.75;;
51451;SDS011;37521;52.020;-1.740;2023-12-29T07:24:02;1.88;;;0.65;;
51451;SDS011;37521;52.020;-1.740;2023-12-29T07:26:32;0.93;;;0.22;;
51451;SDS011;37521;52.020;-1.740;2023-12-29T07:29:05;0.40;;;0.30;;
51451;SDS011;37521;52.020;-1.740;2023-12-29T07:31:38;9.20;;;0.85;;
51451;SDS011;37521;52.020;-1.740;2023-12-29T07:34:06;4.70;;;1.15;;
51451;SDS011;37521;52.020;-1.740;2023-12-29T07:36:37;0.40;;;0.30;;
51451;SDS011;37521;52.020;-1.740;2023-12-29T07:39:07;2.88;;;0.40;;
51451;SDS011;37521;52.020;-1.740;2023-12-29T07:41:39;2.55;;;0.73;;
51451;SDS011;37521;52.020;-1.740;2023-12-29T07:44:11;2.70;;;0.70;;
51451;SDS011;37521;52.020;-1.740;2023-12-29T07:46:40;3.15;;;1.05;;
51451;SDS011;37521;52.020;-1.740;2023-12-29T07:49:08;5.53;;;1.15;;
51451;SDS011;37521;52.020;-1.740;2023-12-29T07:51:39;3.03;;;0.70;;
51451;SDS011;37521;52.020;-1.740;2023-12-29T07:54:09;1.38;;;0.50;;
51451;SDS011;37521;52.020;-1.740;2023-12-29T07:56:38;1.15;;;0.40;;
51451;SDS011;37521;52.020;-1.740;2023-12-29T07:59:06;1.20;;;0.88;;
51451;SDS011;37521;52.020;-1.740;2023-12-29T08:01:37;1.05;;;0.40;;
51451;SDS011;37521;52.020;-1.740;2023-12-29T08:04:06;3.45;;;0.70;;
51451;SDS011;37521;52.020;-1.740;2023-12-29T08:06:37;4.50;;;1.15;;
51451;SDS011;37521;52.020;-1.740;2023-12-29T08:09:06;2.92;;;0.60;;
51451;SDS011;37521;52.020;-1.740;2023-12-29T08:11:35;2.35;;;0.70;;
51451;SDS011;37521;52.020;-1.740;2023-12-29T08:14:04;2.72;;;0.60;;
51451;SDS011;37521;52.020;-1.740;2023-12-29T08:16:38;5.30;;;0.80;;
51451;SDS011;37521;52.020;-1.740;2023-12-29T08:19:07;5.40;;;0.75;;
51451;SDS011;37521;52.020;-1.740;2023-12-29T08:21:37;2.85;;;0.50;;
51451;SDS011;37521;52.020;-1.740;2023-12-29T08:24:06;0.57;;;0.35;;
51451;SDS011;37521;52.020;-1.740;2023-12-29T08:26:41;3.03;;;0.65;;
51451;SDS011;37521;52.020;-1.740;2023-12-29T08:29:12;3.75;;;0.40;;
51451;SDS011;37521;52.020;-1.740;2023-12-29T08:31:42;2.63;;;0.70;;
51451;SDS011;37521;52.020;-1.740;2023-12-29T08:34:11;0.95;;;0.52;;
51451;SDS011;37521;52.020;-1.740;2023-12-29T08:36:40;9.45;;;1.10;;
51451;SDS011;37521;52.020;-1.740;2023-12-29T08:39:09;3.40;;;0.80;;
51451;SDS011;37521;52.020;-1.740;2023-12-29T08:41:38;9.80;;;1.30;;
51451;SDS011;37521;52.020;-1.740;2023-12-29T08:44:07;2.58;;;0.63;;
51451;SDS011;37521;52.020;-1.740;2023-12-29T08:46:36;2.88;;;0.25;;
51451;SDS011;37521;52.020;-1.740;2023-12-29T08:49:06;3.83;;;0.45;;
51451;SDS011;37521;52.020;-1.740;2023-12-29T08:51:36;2.92;;;0.40;;
51451;SDS011;37521;52.020;-1.740;2023-12-29T08:54:04;1.25;;;0.43;;
51451;SDS011;37521;52.020;-1.740;2023-12-29T08:56:34;4.93;;;0.90;;
51451;SDS011;37521;52.020;-1.740;2023-12-29T08:59:02;3.83;;;0.80;;
51451;SDS011;37521;52.020;-1.740;2023-12-29T09:01:31;1.08;;;0.52;;
51451;SDS011;37521;52.020;-1.740;2023-12-29T09:04:00;0.60;;;0.15;;
51451;SDS011;37521;52.020;-1.740;2023-12-29T09:06:30;3.90;;;0.88;;
51451;SDS011;37521;52.020;-1.740;2023-12-29T09:08:59;1.83;;;0.85;;
51451;SDS011;37521;52.020;-1.740;2023-12-29T09:11:28;3.13;;;0.75;;
51451;SDS011;37521;52.020;-1.740;2023-12-29T09:13:57;2.58;;;0.70;;
51451;SDS011;37521;52.020;-1.740;2023-12-29T09:16:25;0.40;;;0.15;;
51451;SDS011;37521;52.020;-1.740;2023-12-29T09:18:54;0.32;;;0.15;;
51451;SDS011;37521;52.020;-1.740;2023-12-29T09:21:23;6.97;;;0.77;;
51451;SDS011;37521;52.020;-1.740;2023-12-29T09:23:53;1.55;;;1.38;;
51451;SDS011;37521;52.020;-1.740;2023-12-29T09:26:22;1.35;;;0.95;;
51451;SDS011;37521;52.020;-1.740;2023-12-29T09:28:51;1.25;;;0.40;;
51451;SDS011;37521;52.020;-1.740;2023-12-29T09:31:20;2.20;;;0.30;;
51451;SDS011;37521;52.020;-1.740;2023-12-29T09:33:49;2.55;;;0.52;;
51451;SDS011;37521;52.020;-1.740;2023-12-29T09:36:18;6.90;;;1.25;;
51451;SDS011;37521;52.020;-1.740;2023-12-29T09:38:46;3.55;;;0.57;;
51451;SDS011;37521;52.020;-1.740;2023-12-29T09:41:17;2.85;;;0.25;;
51451;SDS011;37521;52.020;-1.740;2023-12-29T09:43:48;1.00;;;0.45;;
51451;SDS011;37521;52.020;-1.740;2023-12-29T09:46:17;3.33;;;0.77;;
51451;SDS011;37521;52.020;-1.740;2023-12-29T09:48:47;5.90;;;0.70;;
51451;SDS011;37521;52.020;-1.740;2023-12-29T09:51:16;1.92;;;0.57;;
51451;SDS011;37521;52.020;-1.740;2023-12-29T09:53:49;2.88;;;0.55;;
51451;SDS011;37521;52.020;-1.740;2023-12-29T09:56:21;2.83;;;0.30;;
51451;SDS011;37521;52.020;-1.740;2023-12-29T09:58:51;6.28;;;0.77;;
51451;SDS011;37521;52.020;-1.740;2023-12-29T10:01:22;3.63;;;1.20;;
51451;SDS011;37521;52.020;-1.740;2023-12-29T10:04:15;3.90;;;0.68;;
51451;SDS011;37521;52.020;-1.740;2023-12-29T10:07:04;1.85;;;0.90;;
51451;SDS011;37521;52.020;-1.740;2023-12-29T10:09:56;3.20;;;0.60;;
51451;SDS011;37521;52.020;-1.740;2023-12-29T10:12:29;1.58;;;0.40;;
51451;SDS011;37521;52.020;-1.740;2023-12-29T10:15:04;1.35;;;0.47;;
51451;SDS011;37521;52.020;-1.740;2023-12-29T10:17:43;6.22;;;0.88;;
51451;SDS011;37521;52.020;-1.740;2023-12-29T10:20:22;2.28;;;0.63;;
51451;SDS011;37521;52.020;-1.740;2023-12-29T10:23:02;1.90;;;0.98;;
51451;SDS011;37521;52.020;-1.740;2023-12-29T10:25:35;2.92;;;0.52;;
51451;SDS011;37521;52.020;-1.740;2023-12-29T10:28:06;2.05;;;0.90;;
51451;SDS011;37521;52.020;-1.740;2023-12-29T10:30:36;4.38;;;0.88;;
51451;SDS011;37521;52.020;-1.740;2023-12-29T10:33:05;1.52;;;0.88;;
51451;SDS011;37521;52.020;-1.740;2023-12-29T10:35:35;1.67;;;0.52;;
51451;SDS011;37521;52.020;-1.740;2023-12-29T10:38:09;3.70;;;0.93;;
51451;SDS011;37521;52.020;-1.740;2023-12-29T10:40:39;4.30;;;0.77;;
51451;SDS011;37521;52.020;-1.740;2023-12-29T10:43:11;1.40;;;0.43;;
51451;SDS011;37521;52.020;-1.740;2023-12-29T10:45:40;2.25;;;0.93;;
51451;SDS011;37521;52.020;-1.740;2023-12-29T10:48:09;2.42;;;0.40;;
51451;SDS011;37521;52.020;-1.740;2023-12-29T10:50:44;1.17;;;0.32;;
51451;SDS011;37521;52.020;-1.740;2023-12-29T10:53:13;1.45;;;0.30;;
51451;SDS011;37521;52.020;-1.740;2023-12-29T10:55:44;4.15;;;0.88;;
51451;SDS011;37521;52.020;-1.740;2023-12-29T10:58:16;2.03;;;0.50;;
51451;SDS011;37521;52.020;-1.740;2023-12-29T11:00:46;2.80;;;0.38;;
51451;SDS011;37521;52.020;-1.740;2023-12-29T11:03:15;4.05;;;0.52;;
51451;SDS011;37521;52.020;-1.740;2023-12-29T11:05:45;1.55;;;0.47;;
51451;SDS011;37521;52.020;-1.740;2023-12-29T11:08:15;1.75;;;0.55;;
51451;SDS011;37521;52.020;-1.740;2023-12-29T11:10:44;2.08;;;0.50;;
51451;SDS011;37521;52.020;-1.740;2023-12-29T11:13:14;1.05;;;0.28;;
51451;SDS011;37521;52.020;-1.740;2023-12-29T11:15:48;2.72;;;0.50;;
51451;SDS011;37521;52.020;-1.740;2023-12-29T11:18:18;2.92;;;0.32;;
51451;SDS011;37521;52.020;-1.740;2023-12-29T11:20:47;0.45;;;0.13;;
51451;SDS011;37521;52.020;-1.740;2023-12-29T11:23:17;0.75;;;0.20;;
51451;SDS011;37521;52.020;-1.740;2023-12-29T11:25:46;0.63;;;0.43;;
51451;SDS011;37521;52.020;-1.740;2023-12-29T11:28:15;0.20;;;0.15;;
51451;SDS011;37521;52.020;-1.740;2023-12-29T11:30:47;2.90;;;0.65;;
51451;SDS011;37521;52.020;-1.740;2023-12-29T11:33:18;0.57;;;0.30;;
51451;SDS011;37521;52.020;-1.740;2023-12-29T11:35:53;0.50;;;0.30;;
51451;SDS011;37521;52.020;-1.740;2023-12-29T11:38:43;0.20;;;0.20;;
51451;SDS011;37521;52.020;-1.740;2023-12-29T11:41:21;0.15;;;0.15;;
51451;SDS011;37521;52.020;-1.740;2023-12-29T11:43:57;0.10;;;0.10;;
51451;SDS011;37521;52.020;-1.740;2023-12-29T11:46:33;0.10;;;0.00;;
51451;SDS011;37521;52.020;-1.740;2023-12-29T11:49:03;0.45;;;0.10;;
51451;SDS011;37521;52.020;-1.740;2023-12-29T11:51:34;0.35;;;0.30;;
51451;SDS011;37521;52.020;-1.740;2023-12-29T11:54:04;0.43;;;0.32;;
51451;SDS011;37521;52.020;-1.740;2023-12-29T11:56:34;0.10;;;0.10;;
51451;SDS011;37521;52.020;-1.740;2023-12-29T12:01:53;0.55;;;0.10;;
51451;SDS011;37521;52.020;-1.740;2023-12-29T12:04:39;0.30;;;0.20;;
51451;SDS011;37521;52.020;-1.740;2023-12-29T12:07:13;0.70;;;0.20;;
51451;SDS011;37521;52.020;-1.740;2023-12-29T12:09:44;0.50;;;0.03;;
51451;SDS011;37521;52.020;-1.740;2023-12-29T12:18:01;0.00;;;0.00;;
51451;SDS011;37521;52.020;-1.740;2023-12-29T12:20:33;0.00;;;0.00;;
51451;SDS011;37521;52.020;-1.740;2023-12-29T12:23:04;0.38;;;0.10;;
51451;SDS011;37521;52.020;-1.740;2023-12-29T12:25:39;0.28;;;0.00;;
51451;SDS011;37521;52.020;-1.740;2023-12-29T12:28:09;0.20;;;0.20;;
51451;SDS011;37521;52.020;-1.740;2023-12-29T12:30:38;0.17;;;0.10;;
51451;SDS011;37521;52.020;-1.740;2023-12-29T12:33:08;0.10;;;0.10;;
51451;SDS011;37521;52.020;-1.740;2023-12-29T12:35:40;0.03;;;0.03;;
51451;SDS011;37521;52.020;-1.740;2023-12-29T12:38:09;0.57;;;0.03;;
51451;SDS011;37521;52.020;-1.740;2023-12-29T12:40:38;0.03;;;0.03;;
51451;SDS011;37521;52.020;-1.740;2023-12-29T12:43:07;0.03;;;0.00;;
51451;SDS011;37521;52.020;-1.740;2023-12-29T12:45:41;0.00;;;0.00;;
51451;SDS011;37521;52.020;-1.740;2023-12-29T12:48:18;0.00;;;0.00;;
51451;SDS011;37521;52.020;-1.740;2023-12-29T12:50:50;0.90;;;0.00;;
51451;SDS011;37521;52.020;-1.740;2023-12-29T12:53:21;0.10;;;0.10;;
51451;SDS011;37521;52.020;-1.740;2023-12-29T12:55:50;0.32;;;0.20;;
51451;SDS011;37521;52.020;-1.740;2023-12-29T12:58:21;0.20;;;0.15;;
51451;SDS011;37521;52.020;-1.740;2023-12-29T13:00:50;0.65;;;0.10;;
51451;SDS011;37521;52.020;-1.740;2023-12-29T13:03:24;0.13;;;0.13;;
51451;SDS011;37521;52.020;-1.740;2023-12-29T13:05:53;0.20;;;0.20;;
51451;SDS011;37521;52.020;-1.740;2023-12-29T13:08:22;0.70;;;0.22;;
51451;SDS011;37521;52.020;-1.740;2023-12-29T13:11:00;0.10;;;0.10;;
51451;SDS011;37521;52.020;-1.740;2023-12-29T13:13:37;0.57;;;0.22;;
51451;SDS011;37521;52.020;-1.740;2023-12-29T13:16:06;1.25;;;0.10;;
51451;SDS011;37521;52.020;-1.740;2023-12-29T13:18:36;1.13;;;0.40;;
51451;SDS011;37521;52.020;-1.740;2023-12-29T13:21:06;1.70;;;0.30;;
51451;SDS011;37521;52.020;-1.740;2023-12-29T13:23:36;0.30;;;0.10;;
51451;SDS011;37521;52.020;-1.740;2023-12-29T13:26:05;0.00;;;0.00;;
51451;SDS011;37521;52.020;-1.740;2023-12-29T13:28:37;0.10;;;0.10;;
51451;SDS011;37521;52.020;-1.740;2023-12-29T13:31:07;0.13;;;0.13;;
51451;SDS011;37521;52.020;-1.740;2023-12-29T13:33:43;0.20;;;0.20;;
51451;SDS011;37521;52.020;-1.740;2023-12-29T13:36:19;0.30;;;0.00;;
51451;SDS011;37521;52.020;-1.740;2023-12-29T13:38:55;0.03;;;0.03;;
51451;SDS011;37521;52.020;-1.740;2023-12-29T13:41:26;0.22;;;0.03;;
51451;SDS011;37521;52.020;-1.740;2023-12-29T13:43:56;0.00;;;0.00;;
51451;SDS011;37521;52.020;-1.740;2023-12-29T13:46:26;0.10;;;0.10;;
51451;SDS011;37521;52.020;-1.740;2023-12-29T13:48:57;0.32;;;0.10;;
51451;SDS011;37521;52.020;-1.740;2023-12-29T13:51:26;0.20;;;0.20;;
51451;SDS011;37521;52.020;-1.740;2023-12-29T13:53:59;0.08;;;0.00;;
51451;SDS011;37521;52.020;-1.740;2023-12-29T13:56:28;0.22;;;0.20;;
51451;SDS011;37521;52.020;-1.740;2023-12-29T13:58:57;0.10;;;0.00;;
51451;SDS011;37521;52.020;-1.740;2023-12-29T14:01:34;0.00;;;0.00;;
51451;SDS011;37521;52.020;-1.740;2023-12-29T14:04:08;0.00;;;0.00;;
51451;SDS011;37521;52.020;-1.740;2023-12-29T14:06:42;0.15;;;0.15;;
51451;SDS011;37521;52.020;-1.740;2023-12-29T14:09:18;0.20;;;0.20;;
51451;SDS011;37521;52.020;-1.740;2023-12-29T14:11:47;0.10;;;0.10;;
51451;SDS011;37521;52.020;-1.740;2023-12-29T14:14:21;1.13;;;0.30;;
51451;SDS011;37521;52.020;-1.740;2023-12-29T14:16:51;0.30;;;0.20;;
51451;SDS011;37521;52.020;-1.740;2023-12-29T14:19:22;0.77;;;0.38;;
51451;SDS011;37521;52.020;-1.740;2023-12-29T14:21:52;0.50;;;0.50;;
51451;SDS011;37521;52.020;-1.740;2023-12-29T14:24:22;0.32;;;0.20;;
51451;SDS011;37521;52.020;-1.740;2023-12-29T14:26:55;0.20;;;0.20;;
51451;SDS011;37521;52.020;-1.740;2023-12-29T14:29:26;0.00;;;0.00;;
51451;SDS011;37521;52.020;-1.740;2023-12-29T14:31:55;0.63;;;0.20;;
51451;SDS011;37521;52.020;-1.740;2023-12-29T14:34:28;0.20;;;0.20;;
51451;SDS011;37521;52.020;-1.740;2023-12-29T14:36:57;0.10;;;0.10;;
51451;SDS011;37521;52.020;-1.740;2023-12-29T14:39:26;0.00;;;0.00;;
51451;SDS011;37521;52.020;-1.740;2023-12-29T14:41:55;0.15;;;0.10;;
51451;SDS011;37521;52.020;-1.740;2023-12-29T14:44:23;0.20;;;0.10;;
51451;SDS011;37521;52.020;-1.740;2023-12-29T14:46:52;0.20;;;0.20;;
51451;SDS011;37521;52.020;-1.740;2023-12-29T14:49:21;0.50;;;0.50;;
51451;SDS011;37521;52.020;-1.740;2023-12-29T14:51:51;1.48;;;0.60;;
51451;SDS011;37521;52.020;-1.740;2023-12-29T14:54:21;1.75;;;1.13;;
51451;SDS011;37521;52.020;-1.740;2023-12-29T14:56:50;2.67;;;1.13;;
51451;SDS011;37521;52.020;-1.740;2023-12-29T14:59:26;3.25;;;1.13;;
51451;SDS011;37521;52.020;-1.740;2023-12-29T15:01:57;0.45;;;0.45;;